Time;durP1;ratioP1;P1;durP2;ratioP2;P2;SDS_P1;SDS_P2;PMS_P1;PMS_P2;Temp;Humidity;BMP_temperature;BMP_pressure;BME280_temperature;BME280_humidity;BME280_pressure;Samples;Min_cycle;Max_cycle;Signal;HPM_P1;HPM_P2
2023/07/10 00:00:18;;;;;;;;;;;30.10;44.80;;;30.24;31.22;98786.59;4987937;28;124897;-80
2023/07/10 00:02:44;;;;;;;;;;;30.00;44.70;;;30.23;30.66;98781.34;4984342;28;125309;-80
2023/07/10 00:05:15;;;;;;;;;;;30.00;44.60;;;30.17;31.12;98778.19;5002758;28;115017;-80
2023/07/10 00:07:41;;;;;;;;;;;30.00;44.50;;;30.14;30.78;98782.75;4987742;28;114313;-80
2023/07/10 00:10:15;;;;;;;;;;;29.90;44.40;;;30.10;30.91;98781.25;4987497;28;124006;-80
2023/07/10 00:12:43;;;;;;;;;;;29.90;44.50;;;30.07;31.33;98779.28;4987021;28;124010;-80
2023/07/10 00:15:20;;;;;;;;;;;29.80;44.60;;;30.04;31.29;98768.78;4981253;28;115561;-80
2023/07/10 00:17:48;;;;;;;;;;;29.80;44.60;;;30.02;31.07;98772.06;4979686;28;116679;-80
2023/07/10 00:20:17;;;;;;;;;;;29.80;44.80;;;30.00;31.20;98773.75;4980486;28;123857;-80
2023/07/10 00:22:43;;;;;;;;;;;29.80;44.70;;;29.98;30.86;98785.59;4980862;28;124250;-80
2023/07/10 00:25:15;;;;;;;;;;;29.80;44.60;;;29.97;30.56;98808.84;4961992;28;113859;-80
2023/07/10 00:27:46;;;;;;;;;;;29.70;44.50;;;29.94;30.95;98805.63;4986838;28;113944;-80
2023/07/10 00:30:18;;;;;;;;;;;29.70;44.80;;;29.85;31.65;98813.16;4986980;28;124250;-84
2023/07/10 00:32:46;;;;;;;;;;;29.60;45.40;;;29.69;31.79;98809.06;4982053;28;126285;-82
2023/07/10 00:35:16;;;;;;;;;;;29.50;45.70;;;29.58;31.86;98801.97;4986013;28;114387;-81
2023/07/10 00:38:01;;;;;;;;;;;29.40;45.60;;;29.50;32.23;98809.91;4983390;28;113800;-80
2023/07/10 00:40:29;;;;;;;;;;;29.40;45.70;;;29.46;32.22;98818.50;4973454;28;124368;-80
2023/07/10 00:43:10;;;;;;;;;;;29.30;45.80;;;29.46;32.32;98809.94;4986094;28;123881;-80
2023/07/10 00:45:37;;;;;;;;;;;29.30;46.00;;;29.46;32.33;98792.88;4967208;28;114417;-80
2023/07/10 00:48:31;;;;;;;;;;;29.30;46.20;;;29.47;32.28;98793.66;4983503;28;113902;-81
2023/07/10 00:51:02;;;;;;;;;;;29.30;46.30;;;29.48;32.50;98796.09;4979734;28;124864;-80
2023/07/10 00:53:33;;;;;;;;;;;29.20;46.40;;;29.49;32.53;98799.72;4986731;28;123961;-80
2023/07/10 00:56:00;;;;;;;;;;;29.20;46.50;;;29.49;32.44;98809.06;4986902;28;114330;-80
2023/07/10 00:58:37;;;;;;;;;;;29.20;46.60;;;29.48;32.23;98812.38;5000270;28;113827;-80
2023/07/10 01:01:07;;;;;;;;;;;29.20;46.60;;;29.45;32.77;98819.75;4972686;28;124207;-80
2023/07/10 01:03:35;;;;;;;;;;;29.20;46.60;;;29.44;32.46;98823.81;4968457;28;123971;-80
2023/07/10 01:06:29;;;;;;;;;;;29.20;46.60;;;29.40;32.42;98842.25;4973705;28;115648;-80
2023/07/10 01:09:06;;;;;;;;;;;29.20;46.70;;;29.38;32.57;98845.50;4988628;28;114648;-80
2023/07/10 01:11:35;;;;;;;;;;;29.10;46.90;;;29.38;32.86;98844.72;4976027;28;124028;-80
2023/07/10 01:14:03;;;;;;;;;;;29.10;46.90;;;29.39;32.83;98854.84;4977283;28;123794;-82
2023/07/10 01:16:30;;;;;;;;;;;29.10;47.10;;;29.38;32.66;98859.75;4982065;28;114897;-82
2023/07/10 01:18:57;;;;;;;;;;;29.10;47.10;;;29.38;32.79;98871.13;4987989;28;114019;-82
2023/07/10 01:21:30;;;;;;;;;;;29.10;47.00;;;29.37;32.94;98891.50;4983255;28;124218;-82
2023/07/10 01:24:00;;;;;;;;;;;29.10;47.10;;;29.33;32.43;98888.72;4983646;28;124112;-82
2023/07/10 01:26:27;;;;;;;;;;;29.10;47.00;;;29.31;32.60;98882.66;4982309;28;115063;-82
2023/07/10 01:28:57;;;;;;;;;;;29.00;47.00;;;29.31;32.74;98879.00;4987941;28;113803;-82
2023/07/10 01:31:25;;;;;;;;;;;29.00;47.10;;;29.28;32.88;98881.50;4982973;28;124084;-82
2023/07/10 01:33:54;;;;;;;;;;;29.00;47.20;;;29.26;32.88;98883.19;4978188;28;123985;-79
2023/07/10 01:36:24;;;;;;;;;;;29.00;47.30;;;29.24;32.91;98877.13;4986588;28;114482;-79
2023/07/10 01:39:14;;;;;;;;;;;28.90;47.30;;;29.22;33.13;98873.91;4980180;28;114069;-79
2023/07/10 01:41:47;;;;;;;;;;;28.90;47.40;;;29.21;32.99;98878.81;4987398;28;124807;-79
2023/07/10 01:44:29;;;;;;;;;;;28.90;47.40;;;29.19;33.01;98881.28;4983889;28;124677;-79
2023/07/10 01:46:57;;;;;;;;;;;28.90;47.50;;;29.19;33.20;98871.94;4984592;28;114622;-79
2023/07/10 01:49:25;;;;;;;;;;;28.90;47.70;;;29.16;33.39;98858.59;4989127;28;113009;-79
2023/07/10 01:51:55;;;;;;;;;;;28.90;47.90;;;29.13;33.35;98854.56;4977559;28;124083;-79
2023/07/10 01:54:21;;;;;;;;;;;28.90;48.00;;;29.12;33.42;98852.94;4982807;28;124059;-79
2023/07/10 01:56:47;;;;;;;;;;;28.80;48.10;;;29.11;33.41;98850.56;4969448;28;115184;-79
2023/07/10 01:59:14;;;;;;;;;;;28.80;48.10;;;29.11;33.47;98850.56;4972514;28;113877;-79
2023/07/10 02:01:40;;;;;;;;;;;28.80;48.40;;;29.08;34.11;98840.06;4981645;28;124230;-80
2023/07/10 02:04:07;;;;;;;;;;;28.80;48.50;;;29.02;33.96;98837.69;4974769;28;124463;-80
2023/07/10 02:06:35;;;;;;;;;;;28.80;48.60;;;28.99;33.99;98841.41;4987036;28;114578;-79
2023/07/10 02:09:06;;;;;;;;;;;28.70;48.60;;;28.94;34.09;98836.22;4986651;28;113686;-79
2023/07/10 02:11:34;;;;;;;;;;;28.70;48.70;;;28.90;34.19;98854.59;4988852;28;123794;-79
2023/07/10 02:14:02;;;;;;;;;;;28.70;49.60;;;28.87;34.51;98859.09;4986422;28;124512;-79
2023/07/10 02:16:28;;;;;;;;;;;28.60;49.10;;;28.84;34.80;98837.22;4988205;28;114088;-79
2023/07/10 02:18:57;;;;;;;;;;;28.60;49.40;;;28.81;34.69;98838.91;4989503;28;113805;-80
2023/07/10 02:21:23;;;;;;;;;;;28.60;49.60;;;28.77;34.81;98840.19;4983789;28;124573;-82
2023/07/10 02:23:49;;;;;;;;;;;28.50;49.60;;;28.75;35.25;98837.00;4985101;28;124299;-82
2023/07/10 02:26:16;;;;;;;;;;;28.50;49.80;;;28.71;35.16;98842.75;4992622;28;113457;-81
2023/07/10 02:28:45;;;;;;;;;;;28.50;50.10;;;28.70;35.46;98835.47;4988431;28;113932;-82
2023/07/10 02:31:14;;;;;;;;;;;28.50;50.40;;;28.68;35.55;98828.59;4976955;28;124979;-82
2023/07/10 02:33:40;;;;;;;;;;;28.40;50.50;;;28.66;35.66;98833.91;4986783;28;124885;-82
2023/07/10 02:36:08;;;;;;;;;;;28.40;50.80;;;28.64;35.89;98834.38;4989701;28;114412;-82
2023/07/10 02:38:35;;;;;;;;;;;28.40;51.00;;;28.63;36.16;98839.22;4991282;28;113833;-82
2023/07/10 02:41:01;;;;;;;;;;;28.40;51.30;;;28.63;36.20;98852.63;4981983;28;124717;-82
2023/07/10 02:43:27;;;;;;;;;;;28.30;51.60;;;28.62;36.33;98873.78;4988253;28;123184;-82
2023/07/10 02:45:54;;;;;;;;;;;28.30;51.70;;;28.59;36.53;98874.66;4989930;28;115541;-81
2023/07/10 02:48:20;;;;;;;;;;;28.30;52.00;;;28.57;36.62;98874.28;4986686;28;116546;-81
2023/07/10 02:50:46;;;;;;;;;;;28.30;52.10;;;28.55;36.64;98877.56;4985780;28;124060;-81
2023/07/10 02:53:13;;;;;;;;;;;28.30;52.30;;;28.56;36.80;98884.84;4988247;28;124580;-81
2023/07/10 02:55:41;;;;;;;;;;;28.30;52.30;;;28.56;36.88;98873.50;4989828;28;114596;-81
2023/07/10 02:58:08;;;;;;;;;;;28.30;52.50;;;28.57;36.76;98854.38;4969088;28;113147;-81
2023/07/10 03:00:34;;;;;;;;;;;28.30;52.70;;;28.59;37.03;98866.13;4961013;28;123485;-82
2023/07/10 03:03:00;;;;;;;;;;;28.30;52.90;;;28.58;36.94;98876.69;4990903;28;122726;-82
2023/07/10 03:05:27;;;;;;;;;;;28.30;53.10;;;28.58;37.20;98893.75;4989538;28;114376;-82
2023/07/10 03:07:53;;;;;;;;;;;28.30;53.20;;;28.56;37.50;98901.09;4987643;28;113976;-81
2023/07/10 03:10:20;;;;;;;;;;;28.30;53.40;;;28.52;37.52;98895.47;4990361;28;124610;-81
2023/07/10 03:12:48;;;;;;;;;;;28.20;53.50;;;28.52;37.67;98900.34;4987602;28;124123;-81
2023/07/10 03:15:15;;;;;;;;;;;28.20;53.60;;;28.49;37.73;98890.66;4980073;28;113665;-81
2023/07/10 03:17:45;;;;;;;;;;;28.20;53.80;;;28.49;37.95;98906.91;4984939;28;113683;-81
2023/07/10 03:20:11;;;;;;;;;;;28.20;54.00;;;28.49;37.97;98906.91;4972309;28;124585;-81
2023/07/10 03:22:37;;;;;;;;;;;28.20;54.10;;;28.49;37.89;98913.41;4985707;28;123905;-81
2023/07/10 03:25:08;;;;;;;;;;;28.20;54.30;;;28.48;38.13;98920.31;4990058;28;114647;-81
2023/07/10 03:27:34;;;;;;;;;;;28.20;54.50;;;28.46;38.40;98922.78;4986634;28;114034;-82
2023/07/10 03:30:00;;;;;;;;;;;28.20;54.70;;;28.44;38.48;98905.34;4989049;28;124111;-81
2023/07/10 03:32:27;;;;;;;;;;;28.10;54.70;;;28.44;38.12;98894.00;4986363;28;123635;-82
2023/07/10 03:34:58;;;;;;;;;;;28.20;54.80;;;28.42;38.60;98891.56;4985305;28;115300;-81
2023/07/10 03:37:25;;;;;;;;;;;28.10;54.80;;;28.41;38.50;98903.34;4987027;28;114480;-82
2023/07/10 03:39:51;;;;;;;;;;;28.10;54.90;;;28.41;38.42;98914.72;4988630;28;126580;-82
2023/07/10 03:42:17;;;;;;;;;;;28.10;55.60;;;28.39;38.53;98917.97;4985369;28;124398;-81
2023/07/10 03:44:43;;;;;;;;;;;28.10;55.00;;;28.38;38.72;98915.59;4963994;28;113422;-81
2023/07/10 03:47:12;;;;;;;;;;;28.10;55.20;;;28.38;38.64;98924.09;4989973;28;98360;-81
2023/07/10 03:49:38;;;;;;;;;;;28.10;55.30;;;28.35;38.62;98924.97;4976144;28;124048;-81
2023/07/10 03:52:05;;;;;;;;;;;28.10;55.50;;;28.33;38.75;98927.44;4984941;28;122868;-81
2023/07/10 03:54:35;;;;;;;;;;;28.10;55.60;;;28.31;38.76;98932.75;4988304;28;114646;-82
2023/07/10 03:57:01;;;;;;;;;;;28.00;55.60;;;28.28;38.99;98944.97;4986895;28;114626;-80
2023/07/10 03:59:28;;;;;;;;;;;28.00;55.70;;;28.25;39.04;98943.78;4989553;28;124348;-80
2023/07/10 04:01:54;;;;;;;;;;;28.00;56.00;;;28.20;39.48;98949.94;4986422;28;123985;-80
2023/07/10 04:04:23;;;;;;;;;;;27.90;56.20;;;28.12;39.53;98957.75;4975983;28;114127;-80
2023/07/10 04:06:52;;;;;;;;;;;27.90;56.40;;;28.04;39.55;98949.78;4992131;28;113742;-80
2023/07/10 04:09:19;;;;;;;;;;;27.80;56.60;;;27.98;39.60;98946.63;4988496;28;124146;-80
2023/07/10 04:11:45;;;;;;;;;;;27.70;56.50;;;27.96;39.92;98955.53;4987416;28;123945;-79
2023/07/10 04:14:14;;;;;;;;;;;27.80;56.70;;;27.96;39.68;98949.06;4982322;28;115015;-80
2023/07/10 04:16:40;;;;;;;;;;;27.70;56.70;;;27.98;39.87;98955.94;4984056;28;114082;-80
2023/07/10 04:19:07;;;;;;;;;;;27.70;56.80;;;28.03;39.82;98954.66;4984076;28;122332;-80
2023/07/10 04:21:34;;;;;;;;;;;27.70;56.90;;;28.07;39.83;98954.59;4977811;28;124818;-80
2023/07/10 04:24:04;;;;;;;;;;;27.70;57.00;;;28.10;39.95;98968.78;4986151;28;115380;-80
2023/07/10 04:26:32;;;;;;;;;;;27.80;57.20;;;28.11;40.01;98973.22;4974713;28;114961;-80
2023/07/10 04:29:01;;;;;;;;;;;27.70;57.20;;;28.10;39.78;98971.63;4971526;28;124778;-80
2023/07/10 04:31:32;;;;;;;;;;;27.80;57.30;;;28.08;40.00;98978.97;4978189;28;123934;-81
2023/07/10 04:34:00;;;;;;;;;;;27.70;57.30;;;28.08;39.65;98979.75;4977434;28;113645;-81
2023/07/10 04:36:27;;;;;;;;;;;27.80;57.40;;;28.09;39.92;98963.50;4986099;28;113790;-80
2023/07/10 04:38:53;;;;;;;;;;;27.80;58.10;;;28.09;39.76;98972.84;4989545;28;124387;-80
2023/07/10 04:41:21;;;;;;;;;;;27.70;57.40;;;28.11;40.01;98978.91;4988583;28;123923;-80
2023/07/10 04:43:48;;;;;;;;;;;27.80;57.60;;;28.13;40.01;98979.28;4977514;28;113553;-82
2023/07/10 04:46:16;;;;;;;;;;;27.80;57.70;;;28.15;39.98;98982.47;4970161;28;114014;-80
2023/07/10 04:48:46;;;;;;;;;;;27.80;57.70;;;28.16;39.96;98984.09;4984062;28;124616;-80
2023/07/10 04:51:13;;;;;;;;;;;27.80;57.70;;;28.18;40.16;98984.50;4962542;28;122984;-80
2023/07/10 04:53:39;;;;;;;;;;;27.80;57.80;;;28.18;40.05;98972.28;4953963;28;113572;-80
2023/07/10 04:56:07;;;;;;;;;;;27.80;57.80;;;28.19;39.89;98962.56;4978365;28;113809;-81
2023/07/10 04:58:45;;;;;;;;;;;27.80;57.90;;;28.19;40.03;98954.84;4970896;28;124769;-82
2023/07/10 05:01:12;;;;;;;;;;;27.80;58.00;;;28.22;40.14;98949.53;4990054;28;124953;-80
2023/07/10 05:03:38;;;;;;;;;;;27.80;58.10;;;28.23;40.34;98973.88;4986880;28;114996;-82
2023/07/10 05:06:09;;;;;;;;;;;27.90;58.20;;;28.25;40.53;98999.81;4972558;28;113212;-82
2023/07/10 05:08:35;;;;;;;;;;;27.90;58.50;;;28.25;40.41;99025.41;4973134;28;124243;-81
2023/07/10 05:11:02;;;;;;;;;;;27.90;58.60;;;28.19;40.76;99033.59;4970174;28;123631;-81
2023/07/10 05:13:29;;;;;;;;;;;27.80;58.80;;;28.09;40.96;99038.16;4980207;28;116086;-81
2023/07/10 05:15:56;;;;;;;;;;;27.80;58.90;;;28.07;40.79;99045.50;4983361;28;114652;-81
2023/07/10 05:18:23;;;;;;;;;;;27.80;59.00;;;28.10;40.62;99031.28;4990806;28;123424;-82
2023/07/10 05:20:49;;;;;;;;;;;27.80;58.90;;;28.14;40.63;99026.34;4972489;28;123643;-81
2023/07/10 05:23:16;;;;;;;;;;;27.80;58.90;;;28.19;40.46;99014.50;4969661;28;114356;-81
2023/07/10 05:26:11;;;;;;;;;;;27.80;58.90;;;28.19;40.51;99002.34;4980990;28;114313;-80
2023/07/10 05:28:40;;;;;;;;;;;27.80;58.80;;;28.24;40.50;99009.56;4970049;28;123742;-80
2023/07/10 05:31:09;;;;;;;;;;;27.90;58.80;;;28.30;40.30;99005.03;4977939;28;124621;-81
2023/07/10 05:33:36;;;;;;;;;;;27.90;58.80;;;28.36;40.23;99009.78;4971198;28;114597;-81
2023/07/10 05:36:09;;;;;;;;;;;27.90;58.70;;;28.43;39.89;99006.09;4978001;28;113888;-81
2023/07/10 05:38:36;;;;;;;;;;;28.00;58.80;;;28.51;40.11;98999.06;4981660;28;124649;-81
2023/07/10 05:41:03;;;;;;;;;;;28.00;58.60;;;28.55;39.78;98985.56;4986617;28;122889;-81
2023/07/10 05:43:30;;;;;;;;;;;28.10;58.60;;;28.59;39.87;98991.22;4983105;28;114205;-80
2023/07/10 05:45:57;;;;;;;;;;;28.10;58.40;;;28.63;39.91;99015.50;4987023;28;113198;-80
2023/07/10 05:48:24;;;;;;;;;;;28.20;58.50;;;28.68;39.79;99021.97;4981679;28;124243;-80
2023/07/10 05:50:55;;;;;;;;;;;28.20;58.50;;;28.72;39.57;99036.91;4976105;28;123906;-80
2023/07/10 05:53:22;;;;;;;;;;;28.20;58.30;;;28.76;39.46;99046.22;4988829;28;113188;-80
2023/07/10 05:55:56;;;;;;;;;;;28.30;58.40;;;28.81;39.36;99051.41;4985604;28;112980;-80
2023/07/10 05:58:26;;;;;;;;;;;28.30;58.30;;;28.87;39.41;99068.78;5001348;28;124767;-80
2023/07/10 06:00:57;;;;;;;;;;;28.40;58.40;;;28.92;39.41;99068.31;4990293;28;124657;-79
2023/07/10 06:03:23;;;;;;;;;;;28.40;58.30;;;28.97;39.65;99060.09;4982323;28;115416;-80
2023/07/10 06:05:58;;;;;;;;;;;28.50;58.50;;;29.02;39.39;99062.44;4985446;28;114383;-80
2023/07/10 06:08:25;;;;;;;;;;;28.50;58.50;;;29.05;39.54;99070.16;4965515;28;123741;-80
2023/07/10 06:10:52;;;;;;;;;;;28.50;58.60;;;29.05;39.64;99067.31;4995166;28;123840;-80
2023/07/10 06:13:21;;;;;;;;;;;28.60;58.60;;;29.06;39.51;99063.22;4969106;28;113049;-79
2023/07/10 06:15:50;;;;;;;;;;;28.60;58.50;;;29.10;39.40;99048.13;4969839;28;113260;-79
2023/07/10 06:18:17;;;;;;;;;;;28.60;58.20;;;29.15;39.41;99047.63;4967254;28;124270;-80
2023/07/10 06:20:43;;;;;;;;;;;28.60;58.10;;;29.22;39.16;99044.66;4987152;28;124175;-82
2023/07/10 06:23:09;;;;;;;;;;;28.70;58.20;;;29.28;38.77;99049.44;4987552;28;115095;-81
2023/07/10 06:25:46;;;;;;;;;;;28.70;58.00;;;29.36;38.86;99050.09;4987161;28;113927;-81
2023/07/10 06:28:15;;;;;;;;;;;28.80;57.90;;;29.39;38.77;99043.56;4984458;28;124387;-81
2023/07/10 06:30:51;;;;;;;;;;;28.90;57.90;;;29.39;38.46;99032.16;4978234;28;124154;-84
2023/07/10 06:33:20;;;;;;;;;;;28.90;57.70;;;29.41;38.58;99023.97;4978185;28;116190;-75
2023/07/10 06:35:49;;;;;;;;;;;28.90;57.60;;;29.44;39.01;99022.31;4976493;28;115918;-75
2023/07/10 06:38:18;;;;;;;;;;;29.00;57.80;;;29.49;38.78;99019.75;4981781;28;124282;-74
2023/07/10 06:40:44;;;;;;;;;;;29.00;57.90;;;29.53;39.31;99011.16;4984683;28;124199;-75
2023/07/10 06:43:13;;;;;;;;;;;29.10;58.50;;;29.51;39.39;99005.91;4988557;28;114989;-75
2023/07/10 06:45:39;;;;;;;;;;;29.00;58.50;;;29.59;39.55;99008.63;4988273;28;113821;-75
2023/07/10 06:48:06;;;;;;;;;;;29.10;58.70;;;29.64;39.33;99008.13;4991845;28;124311;-74
2023/07/10 06:50:32;;;;;;;;;;;29.10;58.90;;;29.65;39.52;99012.59;4973441;28;122798;-75
2023/07/10 06:52:59;;;;;;;;;;;29.10;58.90;;;29.66;39.46;99011.34;4990993;28;114311;-75
2023/07/10 06:55:25;;;;;;;;;;;29.20;58.90;;;29.71;39.83;99013.69;4989096;28;114647;-75
2023/07/10 06:57:51;;;;;;;;;;;29.30;59.10;;;29.78;39.32;99024.94;4990015;28;124007;-75
2023/07/10 07:00:21;;;;;;;;;;;29.30;59.00;;;29.85;39.27;99030.50;4989129;28;124068;-74
2023/07/10 07:02:47;;;;;;;;;;;29.40;59.00;;;29.90;39.00;99027.13;4992486;28;114123;-74
2023/07/10 07:05:13;;;;;;;;;;;29.40;58.80;;;29.90;39.37;99032.00;5001430;28;113972;-75
2023/07/10 07:07:40;;;;;;;;;;;29.40;58.60;;;29.88;38.98;99028.81;4988216;28;124751;-74
2023/07/10 07:10:08;;;;;;;;;;;29.40;58.60;;;29.91;38.97;99045.84;4988624;28;123963;-74
2023/07/10 07:12:34;;;;;;;;;;;29.50;58.60;;;29.95;39.04;99043.69;4987344;28;114702;-75
2023/07/10 07:15:01;;;;;;;;;;;29.50;58.30;;;29.93;38.72;99051.91;4991406;28;113198;-74
2023/07/10 07:17:27;;;;;;;;;;;29.50;58.20;;;29.90;39.00;99052.78;4988796;28;124026;-74
2023/07/10 07:19:53;;;;;;;;;;;29.50;58.20;;;29.93;39.26;99054.75;4989528;28;123995;-74
2023/07/10 07:22:19;;;;;;;;;;;29.50;58.20;;;29.95;39.24;99060.78;4972569;28;113704;-75
2023/07/10 07:24:46;;;;;;;;;;;29.50;58.20;;;29.95;38.72;99057.16;4989263;28;113776;-74
2023/07/10 07:27:12;;;;;;;;;;;29.50;58.20;;;29.91;38.73;99065.78;4989428;28;124945;-74
2023/07/10 07:29:38;;;;;;;;;;;29.50;58.00;;;29.89;39.20;99071.09;4988437;28;128439;-75
2023/07/10 07:32:05;;;;;;;;;;;29.50;58.10;;;29.87;39.32;99084.16;4988489;28;114591;-74
2023/07/10 07:34:31;;;;;;;;;;;29.50;58.10;;;29.87;39.24;99082.13;4991106;28;113462;-74
2023/07/10 07:36:58;;;;;;;;;;;29.50;58.30;;;29.94;39.22;99081.19;4989205;28;124456;-74
2023/07/10 07:39:28;;;;;;;;;;;29.50;58.30;;;29.99;38.61;99086.38;4986702;28;124771;-75
2023/07/10 07:41:54;;;;;;;;;;;29.60;58.50;;;30.06;38.91;99091.94;4973599;28;114486;-75
2023/07/10 07:44:20;;;;;;;;;;;29.60;58.40;;;30.12;38.54;99084.50;4989356;28;114720;-74
2023/07/10 07:46:46;;;;;;;;;;;30.20;58.60;;;30.20;38.99;99090.03;4974821;28;124293;-75
2023/07/10 07:49:13;;;;;;;;;;;29.70;58.40;;;30.23;38.71;99090.00;4979609;28;124445;-75
2023/07/10 07:51:39;;;;;;;;;;;29.70;58.40;;;30.25;38.67;99090.38;4984236;28;114316;-75
2023/07/10 07:54:08;;;;;;;;;;;29.70;58.20;;;30.28;38.98;99080.94;4990765;28;112711;-76
2023/07/10 07:56:35;;;;;;;;;;;29.80;58.20;;;30.37;38.27;99091.75;4987360;28;124458;-74
2023/07/10 07:59:01;;;;;;;;;;;29.90;58.20;;;30.47;38.52;99093.56;4989298;28;123296;-75
2023/07/10 08:01:30;;;;;;;;;;;29.90;58.10;;;30.52;38.50;99077.97;4990609;28;113460;-74
2023/07/10 08:03:58;;;;;;;;;;;30.00;58.10;;;30.60;37.92;99079.41;4989891;28;112724;-75
2023/07/10 08:06:29;;;;;;;;;;;30.00;58.00;;;30.69;38.53;99085.31;4989889;28;124236;-75
2023/07/10 08:08:56;;;;;;;;;;;30.10;58.00;;;30.75;38.21;99063.56;4985719;28;123792;-75
2023/07/10 08:11:24;;;;;;;;;;;30.20;57.90;;;30.76;37.71;99059.50;4987320;28;114720;-75
2023/07/10 08:13:51;;;;;;;;;;;30.20;57.90;;;30.80;37.78;99060.22;4988179;28;114033;-75
2023/07/10 08:16:18;;;;;;;;;;;30.20;57.70;;;30.83;37.84;99066.31;4987908;28;124527;-75
2023/07/10 08:18:44;;;;;;;;;;;30.30;57.80;;;30.86;38.22;99063.34;4986243;28;123924;-75
2023/07/10 08:21:13;;;;;;;;;;;30.40;57.80;;;30.90;38.17;99066.13;4985843;28;114261;-75
2023/07/10 08:23:39;;;;;;;;;;;30.40;57.70;;;30.88;37.96;99080.84;4963326;28;113311;-75
2023/07/10 08:26:06;;;;;;;;;;;30.40;57.90;;;30.83;38.19;99063.44;4986495;28;124363;-75
2023/07/10 08:28:35;;;;;;;;;;;30.40;57.90;;;30.80;38.31;99065.94;4999995;28;124340;-75
2023/07/10 08:31:03;;;;;;;;;;;30.40;58.10;;;30.81;38.09;99078.94;4975244;28;115483;-75
2023/07/10 08:33:32;;;;;;;;;;;30.40;58.10;;;30.81;38.77;99073.22;4982252;28;115063;-75
2023/07/10 08:36:03;;;;;;;;;;;30.40;58.40;;;30.79;38.77;99084.28;4971990;28;123534;-75
2023/07/10 08:38:34;;;;;;;;;;;30.40;58.50;;;30.80;39.13;99079.38;4972428;28;123491;-75
2023/07/10 08:41:05;;;;;;;;;;;30.40;58.70;;;30.81;39.27;99084.66;4985012;28;114635;-75
2023/07/10 08:43:39;;;;;;;;;;;30.40;58.90;;;30.84;39.38;99087.88;4981138;28;113779;-75
2023/07/10 08:46:17;;;;;;;;;;;30.40;59.00;;;30.81;39.35;99073.22;4985886;28;124969;-75
2023/07/10 08:49:07;;;;;;;;;;;30.40;59.20;;;30.83;39.54;99078.50;4990063;28;123535;-75
2023/07/10 08:51:46;;;;;;;;;;;30.40;60.00;;;30.85;39.11;99066.66;4971721;28;115098;-75
2023/07/10 08:54:16;;;;;;;;;;;30.50;59.50;;;30.89;39.62;99070.22;4986525;28;113751;-75
2023/07/10 08:57:14;;;;;;;;;;;30.50;59.60;;;30.94;39.16;99081.09;4984862;28;124518;-75
2023/07/10 09:00:04;;;;;;;;;;;30.50;59.40;;;30.98;39.09;99076.94;4969637;28;123505;-75
2023/07/10 09:02:41;;;;;;;;;;;30.50;59.20;;;31.02;38.90;99073.97;4978256;28;114500;-75
2023/07/10 09:05:13;;;;;;;;;;;30.50;59.30;;;31.05;39.12;99075.94;4979160;28;114318;-75
2023/07/10 09:07:42;;;;;;;;;;;30.40;59.30;;;31.11;39.44;99091.31;4991095;28;124313;-75
2023/07/10 09:10:17;;;;;;;;;;;30.60;59.60;;;31.11;38.94;99091.31;4984705;28;124589;-75
2023/07/10 09:12:48;;;;;;;;;;;30.60;59.80;;;31.11;39.38;99090.47;4984917;28;114664;-75
2023/07/10 09:15:35;;;;;;;;;;;30.60;59.90;;;31.08;39.27;99103.59;4987246;28;113569;-76
2023/07/10 09:18:20;;;;;;;;;;;30.60;60.20;;;31.03;40.09;99095.56;4992207;28;123908;-76
2023/07/10 09:20:49;;;;;;;;;;;30.60;60.60;;;31.01;40.52;99101.72;4982250;28;124165;-75
2023/07/10 09:23:25;;;;;;;;;;;30.60;61.20;;;31.02;40.00;99093.97;4985531;28;115277;-75
2023/07/10 09:25:59;;;;;;;;;;;30.60;61.30;;;31.03;40.42;99092.69;4985594;28;114844;-75
2023/07/10 09:28:26;;;;;;;;;;;30.60;61.50;;;31.07;40.11;99093.44;4981409;28;123896;-75
2023/07/10 09:31:06;;;;;;;;;;;30.60;61.50;;;31.08;40.46;99103.59;4970716;28;123518;-75
2023/07/10 09:33:42;;;;;;;;;;;30.60;61.50;;;31.08;40.52;99102.78;4984634;28;114216;-75
2023/07/10 09:36:14;;;;;;;;;;;30.60;61.60;;;31.02;40.88;99099.66;4982734;28;114411;-75
2023/07/10 09:38:43;;;;;;;;;;;30.60;61.60;;;31.03;40.74;99093.53;4987885;28;124622;-75
2023/07/10 09:41:19;;;;;;;;;;;30.70;61.50;;;31.08;40.65;99089.31;4988131;28;124560;-75
2023/07/10 09:43:59;;;;;;;;;;;30.70;61.30;;;31.10;40.37;99094.59;4979722;28;114731;-76
2023/07/10 09:46:38;;;;;;;;;;;30.80;61.50;;;31.12;40.68;99092.09;4991192;28;112928;-75
2023/07/10 09:49:22;;;;;;;;;;;30.80;61.80;;;31.16;40.40;99093.59;4988694;28;124566;-75
2023/07/10 09:52:03;;;;;;;;;;;30.80;61.70;;;31.17;40.42;99089.50;4974946;28;123836;-75
2023/07/10 09:54:36;;;;;;;;;;;30.80;61.60;;;31.16;39.82;99090.75;4990242;28;114592;-75
2023/07/10 09:57:11;;;;;;;;;;;30.80;61.30;;;31.12;40.16;99084.34;4984652;28;112847;-74
2023/07/10 09:59:38;;;;;;;;;;;30.80;61.30;;;31.11;40.35;99084.78;4973434;28;123895;-75
2023/07/10 10:02:34;;;;;;;;;;;30.80;61.10;;;31.08;39.74;99092.16;4987310;28;123154;-75
2023/07/10 10:05:19;;;;;;;;;;;30.80;61.10;;;31.13;39.96;99080.22;4984249;28;114552;-75
2023/07/10 10:08:04;;;;;;;;;;;30.80;61.00;;;31.16;40.03;99070.75;4974066;28;113304;-75
2023/07/10 10:10:32;;;;;;;;;;;30.80;61.30;;;31.20;40.07;99071.50;4984897;28;124204;-75
2023/07/10 10:13:21;;;;;;;;;;;30.80;61.20;;;31.23;39.78;99067.75;4988559;28;124118;-75
2023/07/10 10:16:02;;;;;;;;;;;30.80;61.00;;;31.21;39.64;99061.66;4981743;28;115853;-75
2023/07/10 10:19:00;;;;;;;;;;;30.80;61.00;;;31.23;39.42;99053.47;4967991;28;113705;-75
2023/07/10 10:21:33;;;;;;;;;;;30.80;60.90;;;31.28;39.18;99062.75;4988949;28;122272;-74
2023/07/10 10:24:04;;;;;;;;;;;30.90;60.80;;;31.26;39.52;99063.97;4985584;28;123894;-75
2023/07/10 10:26:55;;;;;;;;;;;30.90;60.80;;;31.32;39.64;99055.69;4989294;28;114640;-75
2023/07/10 10:29:27;;;;;;;;;;;30.90;60.60;;;31.40;38.98;99059.19;4993455;28;113711;-75
2023/07/10 10:32:08;;;;;;;;;;;31.00;60.40;;;31.43;39.44;99055.44;4989167;28;124767;-75
2023/07/10 10:34:43;;;;;;;;;;;31.00;61.20;;;31.47;39.59;99067.56;4984383;28;123871;-75
2023/07/10 10:37:16;;;;;;;;;;;31.00;60.60;;;31.50;39.03;99049.53;4987638;28;114644;-75
2023/07/10 10:39:55;;;;;;;;;;;31.10;60.50;;;31.52;38.94;99052.75;4986703;28;113888;-75
2023/07/10 10:42:29;;;;;;;;;;;31.10;60.30;;;31.57;39.06;99049.34;4983588;28;124921;-76
2023/07/10 10:45:18;;;;;;;;;;;31.20;60.30;;;31.60;38.93;99059.88;4988003;28;123803;-75
2023/07/10 10:48:04;;;;;;;;;;;31.20;60.30;;;31.66;38.85;99058.06;4994199;28;114327;-75
2023/07/10 10:50:33;;;;;;;;;;;31.20;60.00;;;31.68;38.49;99054.78;4989540;28;119311;-75
2023/07/10 10:53:14;;;;;;;;;;;31.20;59.90;;;31.71;38.59;99070.22;4976265;28;124294;-75
2023/07/10 10:55:55;;;;;;;;;;;31.30;59.90;;;31.76;38.77;99044.75;4976002;28;124043;-75
2023/07/10 10:58:30;;;;;;;;;;;31.30;59.80;;;31.79;38.86;99048.75;4990419;28;114320;-75
2023/07/10 11:01:05;;;;;;;;;;;31.30;59.70;;;31.85;38.29;99056.31;4987810;28;113583;-75
2023/07/10 11:03:44;;;;;;;;;;;31.40;59.40;;;31.85;38.01;99044.09;4982642;28;124284;-75
2023/07/10 11:06:30;;;;;;;;;;;31.40;59.10;;;31.87;38.20;99056.69;4990061;28;123522;-75
2023/07/10 11:09:00;;;;;;;;;;;31.40;59.10;;;31.93;37.53;99042.66;4989431;28;115338;-75
2023/07/10 11:11:30;;;;;;;;;;;31.50;58.90;;;31.96;38.02;99033.19;4985657;28;115103;-75
2023/07/10 11:13:58;;;;;;;;;;;31.50;58.80;;;31.99;37.50;99032.28;5000868;28;124242;-75
2023/07/10 11:16:29;;;;;;;;;;;31.50;58.60;;;32.03;37.17;99018.69;4988040;28;124597;-75
2023/07/10 11:18:59;;;;;;;;;;;31.50;58.50;;;32.07;37.27;99012.84;4972236;28;113295;-75
2023/07/10 11:21:27;;;;;;;;;;;31.60;58.30;;;32.04;36.99;99020.28;5002366;28;113833;-76
2023/07/10 11:23:54;;;;;;;;;;;31.60;57.80;;;32.02;36.74;99010.56;4992022;28;123844;-75